createdAt,value
2019-01-20T00:16:44.574Z,12.37
2019-01-20T00:19:17.159Z,11.90
2019-01-20T00:21:51.467Z,13.23
2019-01-20T00:24:24.273Z,13.90
2019-01-20T00:26:57.382Z,15.07
2019-01-20T00:29:31.604Z,15.33
2019-01-20T00:32:05.218Z,15.60
2019-01-20T00:34:42.695Z,16.23
2019-01-20T00:37:17.106Z,17.63
2019-01-20T00:39:50.355Z,17.87
2019-01-20T00:42:25.490Z,15.97
2019-01-20T00:45:02.718Z,17.47
2019-01-20T00:47:40.225Z,17.37
2019-01-20T00:50:17.713Z,18.07
2019-01-20T00:52:55.300Z,17.93
2019-01-20T00:55:29.712Z,16.77
2019-01-20T00:58:06.387Z,19.77
2019-01-20T01:00:41.662Z,16.17
2019-01-20T01:03:15.478Z,17.50
2019-01-20T01:05:49.781Z,17.10
2019-01-20T01:08:30.055Z,17.73
2019-01-20T01:11:06.860Z,15.50
2019-01-20T01:13:42.453Z,16.00
2019-01-20T01:16:17.092Z,16.43
2019-01-20T01:18:56.056Z,17.53
2019-01-20T01:21:27.934Z,17.30
2019-01-20T01:24:01.222Z,18.60
2019-01-20T01:26:34.373Z,16.90
2019-01-20T01:29:07.498Z,18.00
2019-01-20T01:31:43.217Z,17.07
2019-01-20T01:34:16.491Z,17.37
2019-01-20T01:36:52.818Z,17.80
2019-01-20T01:39:25.760Z,16.80
2019-01-20T01:41:58.910Z,16.73
2019-01-20T01:44:32.250Z,17.13
2019-01-20T01:47:05.004Z,17.10
2019-01-20T01:49:38.333Z,17.07
2019-01-20T01:52:11.406Z,16.10
2019-01-20T01:54:44.984Z,16.67
2019-01-20T01:57:17.910Z,18.70
2019-01-20T01:59:51.517Z,17.43
2019-01-20T02:02:24.812Z,16.37
2019-01-20T02:04:57.716Z,17.17
2019-01-20T02:07:30.728Z,18.20
2019-01-20T02:10:03.999Z,17.07
2019-01-20T02:12:37.140Z,14.77
2019-01-20T02:15:11.608Z,17.47
2019-01-20T02:17:45.017Z,20.93
2019-01-20T02:20:26.363Z,16.67
2019-01-20T02:22:59.246Z,15.77
2019-01-20T02:25:32.666Z,15.83
2019-01-20T02:28:05.619Z,17.27
2019-01-20T02:30:39.156Z,22.87
2019-01-20T02:33:12.049Z,15.83
2019-01-20T02:35:45.641Z,15.93
2019-01-20T02:38:18.796Z,16.17
2019-01-20T02:40:51.912Z,15.53
2019-01-20T02:43:24.883Z,15.13
2019-01-20T02:45:58.338Z,16.20
2019-01-20T02:48:31.513Z,16.63
2019-01-20T02:51:24.885Z,16.83
2019-01-20T02:53:58.330Z,17.97
2019-01-20T02:56:31.647Z,18.70
2019-01-20T02:59:05.243Z,18.47
2019-01-20T03:01:38.722Z,19.27
2019-01-20T03:04:11.583Z,25.20
2019-01-20T03:06:43.603Z,18.13
2019-01-20T03:09:18.753Z,18.90
2019-01-20T03:11:50.983Z,18.77
2019-01-20T03:14:23.794Z,17.23
2019-01-20T03:16:56.951Z,18.00
2019-01-20T03:19:29.875Z,23.83
2019-01-20T03:22:03.419Z,19.77
2019-01-20T03:24:36.504Z,18.57
2019-01-20T03:27:10.386Z,25.27
2019-01-20T03:29:43.273Z,20.23
2019-01-20T03:32:16.509Z,25.37
2019-01-20T03:34:49.676Z,17.37
2019-01-20T03:37:22.675Z,23.33
2019-01-20T03:39:55.593Z,17.83
2019-01-20T03:42:28.872Z,16.77
2019-01-20T03:45:02.042Z,23.10
2019-01-20T03:47:35.017Z,16.33
2019-01-20T03:50:11.292Z,15.90
2019-01-20T03:52:44.801Z,15.50
2019-01-20T03:55:19.218Z,21.80
2019-01-20T03:57:52.657Z,16.03
2019-01-20T04:00:26.279Z,20.77
2019-01-20T04:03:00.591Z,16.87
2019-01-20T04:05:33.412Z,15.60
2019-01-20T04:08:06.426Z,16.70
2019-01-20T04:10:39.410Z,16.83
2019-01-20T04:13:12.649Z,20.53
2019-01-20T04:15:45.748Z,16.57
2019-01-20T04:18:18.686Z,17.93
2019-01-20T04:20:51.438Z,22.33
2019-01-20T04:23:25.124Z,18.73
2019-01-20T04:25:58.309Z,23.30
2019-01-20T04:28:31.791Z,18.60
2019-01-20T04:31:04.946Z,24.37
2019-01-20T04:33:38.370Z,17.70
2019-01-20T04:36:11.010Z,18.43
2019-01-20T04:38:44.404Z,19.87
2019-01-20T04:41:17.367Z,25.17
2019-01-20T04:43:50.128Z,24.63
2019-01-20T04:46:23.096Z,23.77
2019-01-20T04:48:56.008Z,19.27
2019-01-20T04:51:29.061Z,24.53
2019-01-20T04:54:02.689Z,19.40
2019-01-20T04:56:38.356Z,21.53
2019-01-20T04:59:10.542Z,20.23
2019-01-20T05:01:46.369Z,18.73
2019-01-20T05:04:18.055Z,26.70
2019-01-20T05:06:51.077Z,18.93
2019-01-20T05:09:24.336Z,17.67
2019-01-20T05:11:56.911Z,18.57
2019-01-20T05:14:30.023Z,24.00
2019-01-20T05:17:02.704Z,19.93
2019-01-20T05:19:35.891Z,19.23
2019-01-20T05:22:08.719Z,20.70
2019-01-20T05:24:45.298Z,22.07
2019-01-20T05:27:18.121Z,26.50
2019-01-20T05:29:51.159Z,19.57
2019-01-20T05:32:24.090Z,20.53
2019-01-20T05:34:57.226Z,22.13
2019-01-20T05:37:29.688Z,16.90
2019-01-20T05:40:02.775Z,20.33
2019-01-20T05:42:35.611Z,25.80
2019-01-20T05:45:10.803Z,20.90
2019-01-20T05:47:43.588Z,19.83
2019-01-20T05:50:17.388Z,22.37
2019-01-20T05:52:50.252Z,23.10
2019-01-20T05:55:24.006Z,26.57
2019-01-20T05:57:57.107Z,39.33
2019-01-20T06:00:31.320Z,28.97
2019-01-20T06:03:04.224Z,33.07
2019-01-20T06:05:37.582Z,26.43
2019-01-20T06:08:10.402Z,34.53
2019-01-20T06:10:43.728Z,21.00
2019-01-20T06:13:16.384Z,22.77
2019-01-20T06:15:49.573Z,22.17
2019-01-20T06:18:22.513Z,24.50
2019-01-20T06:20:55.689Z,33.87
2019-01-20T06:23:28.295Z,25.50
2019-01-20T06:26:01.964Z,19.97
2019-01-20T06:28:35.616Z,19.33
2019-01-20T06:31:08.902Z,20.10
2019-01-20T06:33:41.718Z,21.73
2019-01-20T06:36:15.081Z,24.40
2019-01-20T06:38:49.268Z,24.23
2019-01-20T06:41:24.128Z,33.80
2019-01-20T06:43:56.842Z,27.77
2019-01-20T06:46:30.324Z,23.03
2019-01-20T06:49:02.998Z,23.47
2019-01-20T06:51:36.435Z,24.47
2019-01-20T06:54:09.852Z,25.57
2019-01-20T06:56:43.533Z,28.37
2019-01-20T06:59:16.357Z,24.80
2019-01-20T07:01:50.836Z,33.83
2019-01-20T07:04:23.837Z,39.43
2019-01-20T07:06:56.966Z,34.67
2019-01-20T07:09:33.878Z,33.63
2019-01-20T07:12:04.839Z,34.87
2019-01-20T07:14:38.023Z,29.00
2019-01-20T07:17:11.299Z,36.10
2019-01-20T07:19:44.321Z,44.67
2019-01-20T07:22:17.741Z,41.87
2019-01-20T07:24:50.595Z,33.63
2019-01-20T07:27:24.135Z,36.27
2019-01-20T07:30:00.861Z,37.77
2019-01-20T07:32:34.499Z,32.83
2019-01-20T07:35:07.910Z,34.43
2019-01-20T07:37:41.465Z,35.03
2019-01-20T07:40:16.103Z,33.57
2019-01-20T07:42:49.495Z,39.83
2019-01-20T07:45:22.554Z,40.37
2019-01-20T07:47:56.224Z,43.67
2019-01-20T07:50:29.058Z,42.93
2019-01-20T07:53:02.865Z,41.87
2019-01-20T07:55:36.005Z,45.57
2019-01-20T07:58:09.431Z,83.60
2019-01-20T08:00:42.068Z,48.87
2019-01-20T08:03:15.724Z,52.17
2019-01-20T08:05:48.156Z,51.93
2019-01-20T08:08:26.069Z,51.03
2019-01-20T08:10:59.773Z,53.67
2019-01-20T08:13:34.040Z,50.40
2019-01-20T08:16:13.691Z,52.87
2019-01-20T08:18:47.464Z,53.83
2019-01-20T08:21:20.640Z,54.43
2019-01-20T08:23:53.879Z,57.60
2019-01-20T08:26:26.774Z,57.87
2019-01-20T08:29:01.603Z,57.77
2019-01-20T08:31:34.687Z,59.97
2019-01-20T08:34:07.979Z,56.50
2019-01-20T08:36:41.209Z,60.77
2019-01-20T08:39:15.081Z,56.77
2019-01-20T08:41:49.262Z,64.83
2019-01-20T08:44:23.171Z,58.83
2019-01-20T08:46:56.788Z,67.07
2019-01-20T08:49:30.229Z,61.27
2019-01-20T08:52:03.235Z,70.83
2019-01-20T08:54:36.443Z,79.27
2019-01-20T08:57:09.564Z,108.10
2019-01-20T08:59:43.823Z,79.53
2019-01-20T09:02:16.837Z,68.87
2019-01-20T09:04:50.348Z,64.57
2019-01-20T09:07:21.948Z,90.80
2019-01-20T09:09:55.681Z,95.47
2019-01-20T09:12:28.814Z,77.20
2019-01-20T09:15:02.592Z,64.67
2019-01-20T09:17:35.504Z,90.93
2019-01-20T09:20:10.298Z,69.30
2019-01-20T09:22:43.328Z,53.80
2019-01-20T09:25:20.307Z,52.13
2019-01-20T09:27:53.623Z,49.47
2019-01-20T09:30:30.543Z,51.90
2019-01-20T09:33:08.814Z,55.27
2019-01-20T09:35:42.628Z,52.50
2019-01-20T09:38:17.955Z,54.07
2019-01-20T09:40:57.243Z,51.23
2019-01-20T09:43:31.406Z,53.00
2019-01-20T09:46:07.696Z,55.37
2019-01-20T09:48:42.032Z,69.67
2019-01-20T09:51:18.150Z,51.90
2019-01-20T09:53:57.924Z,55.60
2019-01-20T09:56:37.984Z,55.50
2019-01-20T09:59:09.634Z,55.37
2019-01-20T10:01:42.565Z,52.87
2019-01-20T10:04:15.498Z,77.40
2019-01-20T10:06:48.700Z,56.67
2019-01-20T10:09:21.545Z,60.50
2019-01-20T10:11:54.820Z,57.00
2019-01-20T10:14:27.360Z,57.57
2019-01-20T10:17:00.893Z,45.57
2019-01-20T10:19:33.724Z,56.53
2019-01-20T10:22:07.787Z,46.73
2019-01-20T10:24:40.457Z,41.90
2019-01-20T10:27:13.756Z,43.70
2019-01-20T10:29:49.925Z,39.53
2019-01-20T10:32:22.332Z,41.00
2019-01-20T10:34:55.842Z,44.30
2019-01-20T10:37:28.432Z,41.40
2019-01-20T10:40:05.888Z,48.80
2019-01-20T10:42:39.049Z,49.93
2019-01-20T10:45:12.898Z,45.30
2019-01-20T10:47:52.680Z,52.37
2019-01-20T10:50:25.834Z,48.57
2019-01-20T10:52:59.022Z,46.67
2019-01-20T10:55:31.649Z,39.83
2019-01-20T10:58:05.342Z,45.10
2019-01-20T11:00:42.989Z,42.77
2019-01-20T11:03:16.669Z,39.30
2019-01-20T11:05:49.654Z,38.63
2019-01-20T11:08:22.935Z,37.07
2019-01-20T11:10:55.784Z,49.07
2019-01-20T11:13:29.030Z,44.47
2019-01-20T11:16:01.798Z,50.03
2019-01-20T11:18:35.283Z,40.03
2019-01-20T11:21:07.846Z,43.27
2019-01-20T11:23:44.610Z,49.37
2019-01-20T11:26:17.426Z,52.50
2019-01-20T11:28:50.624Z,51.20
2019-01-20T11:31:23.423Z,50.20
2019-01-20T11:34:00.079Z,61.67
2019-01-20T11:36:31.729Z,50.23
2019-01-20T11:39:05.892Z,60.37
2019-01-20T11:41:38.721Z,72.10
2019-01-20T11:44:16.857Z,58.30
2019-01-20T11:46:45.987Z,68.57
2019-01-20T11:49:18.028Z,54.23
2019-01-20T11:51:50.844Z,53.07
2019-01-20T11:54:25.423Z,54.13
2019-01-20T11:56:58.316Z,50.53
2019-01-20T11:59:32.840Z,78.57
2019-01-20T12:02:05.453Z,52.60
2019-01-20T12:04:38.707Z,60.00
2019-01-20T12:07:11.796Z,72.80
2019-01-20T12:09:45.016Z,59.30
2019-01-20T12:12:17.270Z,57.33
2019-01-20T12:14:50.542Z,56.80
2019-01-20T12:17:23.863Z,53.43
2019-01-20T12:19:57.135Z,57.13
2019-01-20T12:22:29.947Z,56.73
2019-01-20T12:25:07.560Z,48.20
2019-01-20T12:27:40.792Z,48.90
2019-01-20T12:30:17.090Z,53.80
2019-01-20T12:32:52.998Z,42.90
2019-01-20T12:35:27.723Z,48.53
2019-01-20T12:38:02.582Z,46.10
2019-01-20T12:40:37.061Z,45.13
2019-01-20T12:43:09.829Z,54.73
2019-01-20T12:45:42.904Z,43.63
2019-01-20T12:48:15.903Z,46.70
2019-01-20T12:50:50.372Z,44.57
2019-01-20T12:53:23.256Z,53.17
2019-01-20T12:55:55.947Z,48.33
2019-01-20T12:58:29.419Z,50.67
2019-01-20T13:01:02.831Z,49.53
2019-01-20T13:03:35.684Z,52.13
2019-01-20T13:06:09.492Z,51.90
2019-01-20T13:08:42.827Z,47.13
2019-01-20T13:11:16.468Z,50.87
2019-01-20T13:13:49.356Z,51.40
2019-01-20T13:16:22.518Z,49.87
2019-01-20T13:18:55.823Z,50.33
2019-01-20T13:21:29.983Z,50.27
2019-01-20T13:24:03.005Z,55.03
2019-01-20T13:26:36.483Z,50.57
2019-01-20T13:29:09.583Z,49.83
2019-01-20T13:31:42.749Z,53.77
2019-01-20T13:34:15.840Z,54.13
2019-01-20T13:36:49.772Z,54.97
2019-01-20T13:39:26.439Z,54.37
2019-01-20T13:41:57.863Z,53.20
2019-01-20T13:44:32.385Z,55.13
2019-01-20T13:47:05.611Z,56.40
2019-01-20T13:49:46.186Z,54.53
2019-01-20T13:52:19.277Z,51.80
2019-01-20T13:54:52.392Z,53.73
2019-01-20T13:57:25.082Z,54.77
2019-01-20T13:59:58.179Z,55.23
2019-01-20T14:02:32.053Z,54.97
2019-01-20T14:05:04.888Z,58.97
2019-01-20T14:07:38.492Z,53.53
2019-01-20T14:10:13.267Z,57.90
2019-01-20T14:12:46.802Z,57.00
2019-01-20T14:15:20.074Z,57.50
2019-01-20T14:17:53.524Z,55.87
2019-01-20T14:20:27.916Z,61.57
2019-01-20T14:23:00.995Z,58.37
2019-01-20T14:25:34.224Z,55.97
2019-01-20T14:28:07.354Z,75.40
2019-01-20T14:30:43.340Z,57.70
2019-01-20T14:33:18.747Z,51.10
2019-01-20T14:35:54.993Z,55.33
2019-01-20T14:38:35.744Z,56.23
2019-01-20T14:41:18.962Z,74.10
2019-01-20T14:43:53.549Z,58.27
2019-01-20T14:46:26.438Z,63.80
2019-01-20T14:48:59.825Z,57.43
2019-01-20T14:51:32.605Z,61.03
2019-01-20T14:54:05.811Z,60.13
2019-01-20T14:56:37.782Z,57.10
2019-01-20T14:59:11.309Z,66.57
2019-01-20T15:01:44.669Z,59.57
2019-01-20T15:04:18.041Z,50.03
2019-01-20T15:06:50.989Z,46.27
2019-01-20T15:09:34.460Z,40.97
2019-01-20T15:12:07.929Z,45.23
2019-01-20T15:14:46.243Z,47.07
2019-01-20T15:17:19.580Z,46.20
2019-01-20T15:19:54.112Z,42.80
2019-01-20T15:22:31.048Z,42.37
2019-01-20T15:25:05.200Z,45.23
2019-01-20T15:27:39.905Z,42.93
2019-01-20T15:30:25.419Z,40.40
2019-01-20T15:32:58.255Z,42.77
2019-01-20T15:35:31.336Z,47.07
2019-01-20T15:38:04.458Z,43.63
2019-01-20T15:40:38.488Z,38.90
2019-01-20T15:43:11.412Z,46.87
2019-01-20T15:45:44.331Z,40.50
2019-01-20T15:48:17.041Z,44.20
2019-01-20T15:50:50.461Z,43.17
2019-01-20T15:53:23.583Z,43.40
2019-01-20T15:55:57.148Z,51.23
2019-01-20T15:58:29.959Z,46.03
2019-01-20T16:01:02.622Z,54.43
2019-01-20T16:03:41.787Z,62.30
2019-01-20T16:06:15.223Z,54.73
2019-01-20T16:08:49.846Z,62.63
2019-01-20T16:11:25.344Z,61.53
2019-01-20T16:14:01.230Z,53.23
2019-01-20T16:16:35.384Z,44.17
2019-01-20T16:19:11.739Z,48.30
2019-01-20T16:21:47.430Z,46.67
2019-01-20T16:24:41.742Z,47.10
2019-01-20T16:27:17.327Z,49.17
2019-01-20T16:29:51.848Z,50.13
2019-01-20T16:32:36.906Z,48.70
2019-01-20T16:35:14.366Z,53.97
2019-01-20T16:37:53.141Z,52.80
2019-01-20T16:40:28.568Z,53.63
2019-01-20T16:43:05.539Z,52.90
2019-01-20T16:45:43.147Z,51.77
2019-01-20T16:48:17.541Z,54.60
2019-01-20T16:51:01.552Z,47.47
2019-01-20T16:53:35.640Z,49.30
2019-01-20T16:56:10.742Z,51.77
2019-01-20T16:58:45.579Z,51.67
2019-01-20T17:01:19.928Z,55.17
2019-01-20T17:03:55.248Z,54.03
2019-01-20T17:06:29.346Z,53.07
2019-01-20T17:09:03.955Z,51.27
2019-01-20T17:11:36.190Z,53.07
2019-01-20T17:14:10.225Z,53.43
2019-01-20T17:16:44.185Z,46.87
2019-01-20T17:19:23.080Z,50.50
2019-01-20T17:21:57.737Z,52.17
2019-01-20T17:24:31.829Z,53.17
2019-01-20T17:27:07.281Z,53.13
2019-01-20T17:29:44.135Z,48.33
2019-01-20T17:32:18.939Z,48.63
2019-01-20T17:34:52.977Z,50.00
2019-01-20T17:37:26.272Z,51.43
2019-01-20T17:40:00.726Z,47.57
2019-01-20T17:42:35.052Z,50.83
2019-01-20T17:45:09.692Z,56.50
2019-01-20T17:47:42.490Z,54.67
2019-01-20T17:50:19.633Z,61.37
2019-01-20T17:52:52.273Z,51.90
2019-01-20T17:55:30.272Z,57.63
2019-01-20T17:58:04.019Z,53.70
2019-01-20T18:00:40.145Z,54.07
2019-01-20T18:03:14.780Z,59.40
2019-01-20T18:05:52.267Z,52.47
2019-01-20T18:08:29.454Z,62.73
2019-01-20T18:11:06.473Z,51.50
2019-01-20T18:13:40.954Z,47.67
2019-01-20T18:16:15.665Z,49.67
2019-01-20T18:18:52.367Z,50.60
2019-01-20T18:21:29.341Z,48.20
2019-01-20T18:24:02.625Z,49.13
2019-01-20T18:26:39.374Z,46.70
2019-01-20T18:29:18.406Z,49.57
2019-01-20T18:31:56.840Z,49.43
2019-01-20T18:34:36.101Z,48.73
2019-01-20T18:37:12.105Z,47.50
2019-01-20T18:39:47.373Z,46.37
2019-01-20T18:42:21.275Z,54.30
2019-01-20T18:44:55.247Z,57.40
2019-01-20T18:47:29.747Z,52.90
2019-01-20T18:50:04.079Z,91.20
2019-01-20T18:52:39.647Z,51.37
2019-01-20T18:55:15.993Z,53.07
2019-01-20T18:57:53.431Z,53.70
2019-01-20T19:00:33.705Z,38.67
2019-01-20T19:03:08.502Z,42.83
2019-01-20T19:05:44.357Z,43.97
2019-01-20T19:08:18.797Z,45.97
2019-01-20T19:10:52.988Z,53.60
2019-01-20T19:13:26.497Z,44.67
2019-01-20T19:16:00.901Z,43.50
2019-01-20T19:18:36.664Z,44.90
2019-01-20T19:21:29.229Z,41.97
2019-01-20T19:23:56.774Z,38.20
2019-01-20T19:26:34.143Z,37.17
2019-01-20T19:29:27.065Z,39.03
2019-01-20T19:32:02.365Z,35.10
2019-01-20T19:34:36.200Z,38.83
2019-01-20T19:37:10.866Z,35.67
2019-01-20T19:39:50.385Z,38.50
2019-01-20T19:42:19.418Z,36.60
2019-01-20T19:44:57.334Z,44.07
2019-01-20T19:47:32.042Z,42.03
2019-01-20T19:50:08.222Z,43.83
2019-01-20T19:52:43.106Z,40.37
2019-01-20T19:55:22.222Z,38.83
2019-01-20T19:58:08.023Z,42.10
2019-01-20T20:00:45.926Z,41.77
2019-01-20T20:03:20.462Z,42.43
2019-01-20T20:05:54.855Z,40.67
2019-01-20T20:08:30.715Z,38.50
2019-01-20T20:11:07.900Z,42.90
2019-01-20T20:13:43.248Z,36.27
2019-01-20T20:16:23.362Z,46.13
2019-01-20T20:18:53.724Z,42.27
2019-01-20T20:21:30.185Z,56.97
2019-01-20T20:24:04.558Z,44.70
2019-01-20T20:26:38.968Z,42.73
2019-01-20T20:29:12.885Z,46.73
2019-01-20T20:31:46.607Z,29.90
2019-01-20T20:34:20.321Z,37.50
2019-01-20T20:36:55.295Z,46.07
2019-01-20T20:39:30.979Z,37.97
2019-01-20T20:42:06.124Z,38.60
2019-01-20T20:44:44.229Z,36.83
2019-01-20T20:47:18.431Z,43.37
2019-01-20T20:49:52.844Z,52.37
2019-01-20T20:52:28.618Z,36.53
2019-01-20T20:55:03.396Z,36.37
2019-01-20T20:57:38.070Z,39.90
2019-01-20T21:00:16.970Z,42.80
2019-01-20T21:02:53.237Z,47.73
2019-01-20T21:05:32.157Z,42.80
2019-01-20T21:08:06.590Z,42.20
2019-01-20T21:10:40.074Z,38.37
2019-01-20T21:13:15.112Z,48.37
2019-01-20T21:15:47.655Z,45.57
2019-01-20T21:18:22.219Z,44.60
2019-01-20T21:23:54.165Z,40.93
2019-01-20T21:26:28.209Z,46.77
2019-01-20T21:29:03.578Z,40.87
2019-01-20T21:31:38.552Z,38.70
2019-01-20T21:34:14.613Z,38.30
2019-01-20T21:36:49.302Z,39.40
2019-01-20T21:39:24.567Z,42.10
2019-01-20T21:42:02.705Z,39.87
2019-01-20T21:44:36.871Z,41.47
2019-01-20T21:47:15.908Z,43.20
2019-01-20T21:49:51.321Z,38.07
2019-01-20T21:52:28.839Z,41.00
2019-01-20T21:55:05.585Z,40.30
2019-01-20T21:57:33.943Z,41.47
2019-01-20T22:00:02.325Z,47.93
2019-01-20T22:02:32.320Z,41.00
2019-01-20T22:05:00.776Z,40.07
2019-01-20T22:07:33.530Z,41.10
2019-01-20T22:10:07.511Z,42.03
2019-01-20T22:12:40.353Z,44.40
2019-01-20T22:15:14.061Z,40.97
2019-01-20T22:17:46.601Z,39.00
2019-01-20T22:20:20.707Z,36.33
2019-01-20T22:22:53.739Z,37.93
2019-01-20T22:25:26.891Z,39.53
2019-01-20T22:27:59.275Z,36.33
2019-01-20T22:30:32.467Z,43.97
2019-01-20T22:33:06.384Z,40.47
2019-01-20T22:35:41.331Z,38.80
2019-01-20T22:38:16.113Z,45.47
2019-01-20T22:40:53.163Z,39.67
2019-01-20T22:43:27.230Z,39.07
2019-01-20T22:46:00.333Z,43.70
2019-01-20T22:48:36.010Z,43.90
2019-01-20T22:51:14.642Z,47.50
2019-01-20T22:53:50.164Z,43.57
2019-01-20T22:56:24.613Z,40.13
2019-01-20T22:58:57.287Z,40.77
2019-01-20T23:01:30.453Z,42.43
2019-01-20T23:04:02.804Z,53.90
2019-01-20T23:06:36.008Z,41.80
2019-01-20T23:09:09.696Z,40.67
2019-01-20T23:11:42.994Z,45.43
2019-01-20T23:14:19.216Z,41.00
2019-01-20T23:16:53.553Z,37.23
2019-01-20T23:19:26.451Z,42.73
2019-01-20T23:21:58.420Z,39.40
2019-01-20T23:24:31.200Z,46.80
2019-01-20T23:27:04.569Z,46.13
2019-01-20T23:29:37.625Z,41.27
2019-01-20T23:32:11.084Z,42.43
2019-01-20T23:34:44.723Z,46.17
2019-01-20T23:37:17.690Z,47.37
2019-01-20T23:39:50.399Z,49.87
2019-01-20T23:42:23.513Z,41.73
2019-01-20T23:44:56.295Z,39.07
2019-01-20T23:47:29.450Z,43.30
2019-01-20T23:50:02.233Z,39.67
2019-01-20T23:52:35.631Z,43.07
2019-01-20T23:55:08.782Z,40.00
2019-01-20T23:57:40.806Z,38.60
